createdAt,value
2023-05-08T00:03:31.893Z,100.00
2023-05-08T00:08:36.064Z,100.00
2023-05-08T00:13:40.113Z,100.00
2023-05-08T00:18:42.748Z,100.00
2023-05-08T00:23:46.818Z,100.00
2023-05-08T00:28:49.472Z,100.00
2023-05-08T00:33:52.107Z,100.00
2023-05-08T00:38:56.208Z,100.00
2023-05-08T00:43:58.959Z,100.00
2023-05-08T00:49:01.751Z,100.00
2023-05-08T00:54:06.070Z,100.00
2023-05-08T00:59:12.555Z,100.00
2023-05-08T01:04:15.885Z,100.00
2023-05-08T01:09:19.955Z,100.00
2023-05-08T01:14:33.105Z,100.00
2023-05-08T01:20:03.966Z,100.00
2023-05-08T01:25:40.285Z,100.00
2023-05-08T01:31:00.619Z,100.00
2023-05-08T01:36:16.296Z,100.00
2023-05-08T01:41:26.644Z,100.00
2023-05-08T01:46:33.700Z,100.00
2023-05-08T01:51:42.552Z,100.00
2023-05-08T01:56:48.643Z,100.00
2023-05-08T02:01:54.989Z,100.00
2023-05-08T02:07:00.588Z,100.00
2023-05-08T02:12:04.592Z,100.00
2023-05-08T02:17:10.660Z,100.00
2023-05-08T02:22:17.723Z,100.00
2023-05-08T02:27:23.001Z,100.00
2023-05-08T02:32:26.831Z,100.00
2023-05-08T02:37:32.879Z,100.00
2023-05-08T02:42:35.915Z,100.00
2023-05-08T02:47:44.496Z,100.00
2023-05-08T02:52:50.641Z,100.00
2023-05-08T02:58:03.949Z,100.00
2023-05-08T03:03:12.959Z,100.00
2023-05-08T03:08:21.605Z,100.00
2023-05-08T03:13:26.179Z,100.00
2023-05-08T03:18:35.741Z,100.00
2023-05-08T03:23:43.484Z,100.00
2023-05-08T03:28:48.784Z,100.00
2023-05-08T03:33:55.371Z,100.00
2023-05-08T03:39:00.723Z,100.00
2023-05-08T03:44:04.446Z,100.00
2023-05-08T03:49:09.794Z,100.00
2023-05-08T03:54:13.888Z,100.00
2023-05-08T03:59:22.482Z,100.00
2023-05-08T04:04:31.432Z,100.00
2023-05-08T04:09:40.224Z,100.00
2023-05-08T04:14:48.652Z,100.00
2023-05-08T04:19:59.702Z,100.00
2023-05-08T04:25:06.738Z,100.00
2023-05-08T04:30:10.991Z,100.00
2023-05-08T04:35:15.289Z,100.00
2023-05-08T04:40:20.439Z,100.00
2023-05-08T04:45:23.568Z,100.00
2023-05-08T04:50:27.096Z,100.00
2023-05-08T04:55:31.124Z,100.00
2023-05-08T05:00:35.151Z,100.00
2023-05-08T05:05:38.931Z,100.00
2023-05-08T05:10:44.171Z,100.00
2023-05-08T05:15:47.234Z,100.00
2023-05-08T05:20:51.243Z,100.00
2023-05-08T05:25:55.754Z,100.00
2023-05-08T05:30:58.870Z,100.00
2023-05-08T05:36:01.567Z,100.00
2023-05-08T05:41:05.594Z,100.00
2023-05-08T05:46:09.705Z,100.00
2023-05-08T05:51:14.152Z,100.00
2023-05-08T05:56:18.207Z,100.00
2023-05-08T06:01:20.916Z,100.00
2023-05-08T06:06:24.795Z,100.00
2023-05-08T06:11:28.858Z,100.00
2023-05-08T06:16:32.144Z,100.00
2023-05-08T06:21:35.591Z,100.00
2023-05-08T06:26:39.485Z,100.00
2023-05-08T06:31:42.022Z,100.00
2023-05-08T06:36:44.567Z,100.00
2023-05-08T06:41:49.547Z,100.00
2023-05-08T06:47:00.536Z,100.00
2023-05-08T06:52:03.121Z,100.00
2023-05-08T06:57:08.565Z,100.00
2023-05-08T07:02:11.527Z,100.00
2023-05-08T07:07:15.156Z,100.00
2023-05-08T07:12:19.104Z,100.00
2023-05-08T07:17:21.787Z,100.00
2023-05-08T07:22:24.392Z,100.00
2023-05-08T07:27:28.525Z,100.00
2023-05-08T07:32:31.567Z,100.00
2023-05-08T07:37:34.257Z,100.00
2023-05-08T07:42:42.343Z,100.00
2023-05-08T07:47:52.332Z,100.00
2023-05-08T07:52:54.972Z,100.00
2023-05-08T07:57:59.186Z,100.00
2023-05-08T08:03:02.311Z,100.00
2023-05-08T08:08:05.430Z,100.00
2023-05-08T08:13:09.342Z,100.00
2023-05-08T08:18:12.937Z,100.00
2023-05-08T08:23:15.573Z,100.00
2023-05-08T08:28:19.619Z,100.00
2023-05-08T08:33:22.248Z,100.00
2023-05-08T08:38:25.157Z,100.00
2023-05-08T08:43:30.028Z,100.00
2023-05-08T08:48:32.874Z,100.00
2023-05-08T08:53:43.670Z,100.00
2023-05-08T08:58:55.271Z,100.00
2023-05-08T09:03:59.358Z,100.00
2023-05-08T09:09:02.735Z,100.00
2023-05-08T09:14:07.058Z,100.00
2023-05-08T09:19:10.470Z,100.00
2023-05-08T09:24:13.766Z,100.00
2023-05-08T09:29:19.802Z,100.00
2023-05-08T09:34:28.277Z,100.00
2023-05-08T09:39:31.275Z,100.00
2023-05-08T09:44:46.846Z,100.00
2023-05-08T09:49:59.717Z,100.00
2023-05-08T09:55:04.616Z,100.00
2023-05-08T10:00:10.477Z,100.00
2023-05-08T10:05:25.283Z,100.00
2023-05-08T10:10:30.591Z,100.00
2023-05-08T10:15:36.627Z,100.00
2023-05-08T10:20:41.421Z,100.00
2023-05-08T10:25:47.002Z,100.00
2023-05-08T10:30:51.557Z,100.00
2023-05-08T10:35:54.541Z,100.00
2023-05-08T10:41:01.166Z,100.00
2023-05-08T10:46:12.319Z,100.00
2023-05-08T10:51:22.772Z,100.00
2023-05-08T10:56:28.402Z,100.00
2023-05-08T11:01:32.450Z,100.00
2023-05-08T11:06:54.158Z,100.00
2023-05-08T11:12:21.313Z,100.00
2023-05-08T11:17:26.385Z,100.00
2023-05-08T11:22:30.827Z,100.00
2023-05-08T11:27:38.927Z,100.00
2023-05-08T11:32:59.541Z,100.00
2023-05-08T11:38:22.184Z,100.00
2023-05-08T11:43:26.960Z,100.00
2023-05-08T11:48:30.998Z,100.00
2023-05-08T11:53:34.188Z,100.00
2023-05-08T11:58:37.365Z,100.00
2023-05-08T12:03:41.394Z,100.00
2023-05-08T12:08:44.090Z,100.00
2023-05-08T12:13:51.854Z,100.00
2023-05-08T12:18:57.797Z,100.00
2023-05-08T12:24:01.307Z,100.00
2023-05-08T12:29:07.327Z,100.00
2023-05-08T12:34:11.454Z,100.00
2023-05-08T12:39:14.992Z,100.00
2023-05-08T12:44:19.015Z,100.00
2023-05-08T12:49:28.582Z,100.00
2023-05-08T12:54:35.994Z,100.00
2023-05-08T12:59:38.587Z,100.00
2023-05-08T13:04:42.770Z,97.09
2023-05-08T13:09:59.588Z,94.77
2023-05-08T13:15:04.604Z,91.08
2023-05-08T13:20:11.236Z,90.09
2023-05-08T13:25:14.372Z,90.15
2023-05-08T13:30:17.920Z,87.97
2023-05-08T13:35:22.707Z,89.03
2023-05-08T13:40:26.022Z,91.05
2023-05-08T13:45:28.858Z,94.88
2023-05-08T13:50:32.858Z,95.49
2023-05-08T13:55:35.558Z,95.73
2023-05-08T14:00:38.499Z,97.29
2023-05-08T14:05:42.463Z,96.91
2023-05-08T14:10:45.053Z,100.00
2023-05-08T14:15:47.637Z,98.02
2023-05-08T14:20:57.310Z,98.20
2023-05-08T14:26:00.388Z,96.10
2023-05-08T14:31:02.992Z,96.21
2023-05-08T14:36:07.622Z,93.35
2023-05-08T14:41:10.873Z,93.78
2023-05-08T14:46:13.938Z,96.84
2023-05-08T14:51:19.187Z,97.01
2023-05-08T14:56:24.301Z,97.05
2023-05-08T15:01:27.676Z,96.96
